createdAt,value
2023-03-23T15:58:14.894Z,28.70
2023-03-23T16:01:08.630Z,28.50
2023-03-23T16:04:04.723Z,28.80
2023-03-23T16:06:55.950Z,28.70
2023-03-23T16:09:44.699Z,28.80
2023-03-23T16:12:32.275Z,28.60
2023-03-23T16:15:20.624Z,28.50
2023-03-23T16:18:10.886Z,28.40
2023-03-23T16:20:58.456Z,28.20
2023-03-23T16:23:46.556Z,28.00
2023-03-23T16:26:37.728Z,27.70
2023-03-23T16:29:46.687Z,27.60
2023-03-23T16:35:21.116Z,27.30
2023-03-23T16:38:16.382Z,27.00
2023-03-23T16:41:03.993Z,26.90
2023-03-23T16:43:52.256Z,26.70
2023-03-23T16:46:39.740Z,26.60
2023-03-23T16:49:27.487Z,26.40
2023-03-23T16:52:15.036Z,26.20
2023-03-23T16:55:02.587Z,26.10
2023-03-23T16:57:50.368Z,25.90
2023-03-23T17:00:38.942Z,25.80
2023-03-23T17:03:26.735Z,25.70
2023-03-23T17:06:14.626Z,25.50
2023-03-23T17:09:02.240Z,25.40
2023-03-23T17:11:49.875Z,25.30
2023-03-23T17:14:40.272Z,25.10
2023-03-23T17:17:30.861Z,24.90
2023-03-23T17:20:19.549Z,24.70
2023-03-23T17:23:07.695Z,24.50
2023-03-23T17:25:55.909Z,24.20
2023-03-23T17:28:43.654Z,24.10
2023-03-23T17:31:31.312Z,23.90
2023-03-23T17:34:19.833Z,23.70
2023-03-23T17:37:07.997Z,23.50
2023-03-23T17:39:55.570Z,23.40
2023-03-23T17:42:43.092Z,23.30
2023-03-23T17:45:30.821Z,23.10
2023-03-23T17:48:18.447Z,23.10
2023-03-23T17:51:09.172Z,22.90
2023-03-23T17:53:58.549Z,22.70
2023-03-23T17:56:46.223Z,22.50
2023-03-23T17:59:33.780Z,22.40
2023-03-23T18:02:21.560Z,22.20
2023-03-23T18:05:09.927Z,22.10
2023-03-23T18:07:57.407Z,22.00
2023-03-23T18:10:45.331Z,21.90
2023-03-23T18:13:36.219Z,21.80
2023-03-23T18:16:23.964Z,21.70
2023-03-23T18:19:11.454Z,21.80
2023-03-23T18:22:01.536Z,21.70
2023-03-23T18:24:49.004Z,21.60
2023-03-23T18:27:36.601Z,21.60
2023-03-23T18:30:26.959Z,21.50
2023-03-23T18:33:20.207Z,21.50
2023-03-23T18:36:09.530Z,21.40
2023-03-23T18:38:58.137Z,21.30
2023-03-23T18:41:45.720Z,21.30
2023-03-23T18:44:33.833Z,21.30
2023-03-23T18:47:21.630Z,21.20
2023-03-23T18:50:11.075Z,21.20
2023-03-23T18:52:58.744Z,21.10
2023-03-23T18:55:47.924Z,21.10
2023-03-23T18:58:36.578Z,21.00
2023-03-23T19:01:24.141Z,21.00
2023-03-23T19:04:13.638Z,20.90
2023-03-23T19:07:02.424Z,20.80
2023-03-23T19:09:50.035Z,20.70
2023-03-23T19:12:37.540Z,20.70
2023-03-23T19:15:25.078Z,20.60
2023-03-23T19:18:12.887Z,20.60
2023-03-23T19:23:51.404Z,20.50
2023-03-23T19:26:43.048Z,20.50
2023-03-23T19:29:30.578Z,20.50
2023-03-23T19:32:18.575Z,20.50
2023-03-23T19:35:07.124Z,20.50
2023-03-23T19:37:54.781Z,20.50
2023-03-23T19:40:49.129Z,20.50
2023-03-23T19:43:37.870Z,20.40
2023-03-23T19:46:28.328Z,20.40
2023-03-23T19:49:25.186Z,20.50
2023-03-23T19:52:14.546Z,20.40
2023-03-23T19:55:04.589Z,20.40
2023-03-23T19:57:52.170Z,20.40
2023-03-23T20:00:40.262Z,20.50
2023-03-23T20:03:28.404Z,20.50
2023-03-23T20:06:19.440Z,20.50
2023-03-23T20:09:07.725Z,20.50
2023-03-23T20:11:55.447Z,20.50
2023-03-23T20:14:45.513Z,20.50
2023-03-23T20:17:33.753Z,20.50
2023-03-23T20:20:21.390Z,20.50
2023-03-23T20:23:08.880Z,20.60
2023-03-23T20:26:04.262Z,20.60
2023-03-23T20:28:52.519Z,20.50
2023-03-23T20:31:45.223Z,20.50
2023-03-23T20:34:33.020Z,20.50
2023-03-23T20:37:21.005Z,20.50
2023-03-23T20:40:14.387Z,20.50
2023-03-23T20:43:03.788Z,20.50
2023-03-23T20:45:51.503Z,20.50
2023-03-23T20:48:40.357Z,20.50
2023-03-23T20:51:28.279Z,20.50
2023-03-23T20:54:17.842Z,20.50
2023-03-23T20:57:05.561Z,20.50
2023-03-23T20:59:53.661Z,20.40
2023-03-23T21:02:42.361Z,20.40
2023-03-23T21:05:30.038Z,20.40
2023-03-23T21:08:18.959Z,20.40
2023-03-23T21:11:09.766Z,20.30
2023-03-23T21:13:57.357Z,20.20
2023-03-23T21:16:45.440Z,20.10
2023-03-23T21:19:34.262Z,20.00
2023-03-23T21:22:22.990Z,19.90
2023-03-23T21:25:10.631Z,19.90
2023-03-23T21:27:58.169Z,19.70
2023-03-23T21:30:48.371Z,19.60
2023-03-23T21:33:36.087Z,19.60
2023-03-23T21:36:24.814Z,19.50
2023-03-23T21:39:12.315Z,19.40
2023-03-23T21:42:00.159Z,19.40
2023-03-23T21:44:48.751Z,19.30
2023-03-23T21:47:38.449Z,19.30
2023-03-23T21:50:26.148Z,19.20
2023-03-23T21:53:18.205Z,19.10
2023-03-23T21:56:10.322Z,19.10
2023-03-23T21:58:58.420Z,19.00
2023-03-23T22:01:46.296Z,18.90
2023-03-23T22:04:35.112Z,18.90
2023-03-23T22:07:24.120Z,18.80
2023-03-23T22:10:14.879Z,18.80
2023-03-23T22:13:02.393Z,18.70
2023-03-23T22:15:52.129Z,18.60
2023-03-23T22:18:43.522Z,18.60
2023-03-23T22:21:32.045Z,18.60
2023-03-23T22:24:19.731Z,18.60
2023-03-23T22:27:07.974Z,18.60
2023-03-23T22:29:55.840Z,18.60
2023-03-23T22:32:43.771Z,18.60
2023-03-23T22:35:33.843Z,18.60
2023-03-23T22:38:22.610Z,18.60
2023-03-23T22:41:25.228Z,18.70
2023-03-23T22:44:18.386Z,18.70
2023-03-23T22:47:06.738Z,18.80
2023-03-23T22:49:54.380Z,18.80
2023-03-23T22:52:42.013Z,18.70
2023-03-23T22:55:29.818Z,18.70
2023-03-23T22:58:20.265Z,18.80
2023-03-23T23:01:14.270Z,18.70
2023-03-23T23:04:03.011Z,18.70
2023-03-23T23:06:55.457Z,18.80
2023-03-23T23:09:51.604Z,18.80
2023-03-23T23:12:39.352Z,18.90
2023-03-23T23:15:27.863Z,19.00
2023-03-23T23:18:16.437Z,19.10
2023-03-23T23:21:15.605Z,19.10
2023-03-23T23:24:07.811Z,19.20
2023-03-23T23:26:55.861Z,19.20
2023-03-23T23:29:44.872Z,19.20
2023-03-23T23:32:34.112Z,19.30
2023-03-23T23:35:22.242Z,19.20
2023-03-23T23:38:12.757Z,19.20
2023-03-23T23:41:00.393Z,19.10
2023-03-23T23:43:48.117Z,19.10
2023-03-23T23:46:35.742Z,19.10
2023-03-23T23:49:28.771Z,19.10
2023-03-23T23:52:17.004Z,19.00
2023-03-23T23:55:08.059Z,18.90
2023-03-23T23:57:56.238Z,18.90
